createdAt,value
2018-08-28T00:00:02.710Z,101100.94
2018-08-28T00:02:31.690Z,101111.72
2018-08-28T00:05:01.865Z,101115.59
2018-08-28T00:07:31.044Z,101123.34
2018-08-28T00:10:00.262Z,101134.28
2018-08-28T00:12:29.218Z,101131.75
2018-08-28T00:14:58.197Z,101135.83
2018-08-28T00:17:27.078Z,101134.72
2018-08-28T00:19:55.971Z,101132.52
2018-08-28T00:22:24.853Z,101132.04
2018-08-28T00:24:53.798Z,101141.25
2018-08-28T00:27:22.725Z,101145.12
2018-08-28T00:29:51.598Z,101142.61
2018-08-28T00:32:20.528Z,101143.94
2018-08-28T00:34:49.445Z,101144.24
2018-08-28T00:37:18.391Z,101152.05
2018-08-28T00:39:47.285Z,101145.28
2018-08-28T00:42:16.215Z,101142.76
2018-08-28T00:44:45.135Z,101145.73
2018-08-28T00:47:14.027Z,101150.93
2018-08-28T00:49:42.940Z,101148.20
2018-08-28T00:52:11.849Z,101146.31
2018-08-28T00:54:40.729Z,101154.84
2018-08-28T00:57:09.667Z,101152.99
2018-08-28T00:59:38.538Z,101148.12
2018-08-28T01:02:07.446Z,101152.56
2018-08-28T01:04:36.383Z,101151.22
2018-08-28T01:07:05.776Z,101156.89
2018-08-28T01:09:34.640Z,101158.20
2018-08-28T01:12:03.514Z,101165.98
2018-08-28T01:14:32.504Z,101159.22
2018-08-28T01:17:01.667Z,101161.67
2018-08-28T01:19:30.576Z,101162.06
2018-08-28T01:21:59.498Z,101165.38
2018-08-28T01:24:28.444Z,101166.18
2018-08-28T01:26:57.346Z,101171.14
2018-08-28T01:29:26.204Z,101165.16
2018-08-28T01:31:55.107Z,101174.64
2018-08-28T01:34:24.840Z,101167.97
2018-08-28T01:36:53.761Z,101178.11
2018-08-28T01:39:22.661Z,101176.86
2018-08-28T01:41:51.628Z,101178.95
2018-08-28T01:44:20.521Z,101183.90
2018-08-28T01:46:49.449Z,101186.59
2018-08-28T01:49:18.338Z,101189.05
2018-08-28T01:51:47.260Z,101189.00
2018-08-28T01:54:16.182Z,101192.82
2018-08-28T01:56:45.054Z,101195.26
2018-08-28T01:59:13.984Z,101192.75
2018-08-28T02:01:42.877Z,101198.22
2018-08-28T02:04:11.815Z,101202.64
2018-08-28T02:06:40.683Z,101204.78
2018-08-28T02:09:09.594Z,101202.06
2018-08-28T02:11:38.530Z,101198.41
2018-08-28T02:14:07.666Z,101206.11
2018-08-28T02:16:36.561Z,101203.52
2018-08-28T02:19:05.447Z,101207.34
2018-08-28T02:21:34.373Z,101206.48
2018-08-28T02:24:03.254Z,101205.90
2018-08-28T02:26:32.209Z,101212.03
2018-08-28T02:29:01.107Z,101209.38
2018-08-28T02:31:30.070Z,101208.02
2018-08-28T02:33:58.972Z,101213.92
2018-08-28T02:36:27.999Z,101209.94
2018-08-28T02:38:57.248Z,101217.48
2018-08-28T02:41:26.227Z,101221.52
2018-08-28T02:43:55.149Z,101213.75
2018-08-28T02:46:24.084Z,101213.78
2018-08-28T02:48:53.028Z,101216.53
2018-08-28T02:51:21.935Z,101222.97
2018-08-28T02:53:50.844Z,101223.32
2018-08-28T02:56:19.839Z,101220.84
2018-08-28T02:58:48.705Z,101222.38
2018-08-28T03:01:17.655Z,101226.50
2018-08-28T03:06:21.826Z,101229.31
2018-08-28T03:08:50.948Z,101231.57
2018-08-28T03:11:19.892Z,101227.46
2018-08-28T03:13:48.783Z,101231.44
2018-08-28T03:16:17.721Z,101235.68
2018-08-28T03:18:46.620Z,101237.63
2018-08-28T03:21:15.555Z,101243.25
2018-08-28T03:23:44.506Z,101244.47
2018-08-28T03:26:13.430Z,101241.81
2018-08-28T03:28:42.332Z,101239.96
2018-08-28T03:31:11.264Z,101242.34
2018-08-28T03:33:40.197Z,101252.89
2018-08-28T03:36:09.080Z,101257.33
2018-08-28T03:38:37.962Z,101257.00
2018-08-28T03:41:07.140Z,101255.56
2018-08-28T03:43:36.097Z,101257.84
2018-08-28T03:46:05.023Z,101266.69
2018-08-28T03:48:33.932Z,101263.23
2018-08-28T03:51:02.882Z,101263.44
2018-08-28T03:53:31.832Z,101264.48
2018-08-28T03:56:00.771Z,101271.22
2018-08-28T03:58:29.717Z,101272.59
2018-08-28T04:00:58.728Z,101275.22
2018-08-28T04:03:28.934Z,101281.86
2018-08-28T04:06:00.054Z,101278.50
2018-08-28T04:08:28.962Z,101280.95
2018-08-28T04:10:57.936Z,101285.05
2018-08-28T04:13:26.848Z,101293.94
2018-08-28T04:15:55.790Z,101288.72
2018-08-28T04:18:24.693Z,101292.12
2018-08-28T04:20:53.648Z,101295.17
2018-08-28T04:23:23.116Z,101296.25
2018-08-28T04:25:51.994Z,101298.40
2018-08-28T04:28:20.875Z,101299.38
2018-08-28T04:30:49.792Z,101310.66
2018-08-28T04:33:18.643Z,101306.95
2018-08-28T04:35:47.581Z,101311.37
2018-08-28T04:38:16.456Z,101310.60
2018-08-28T04:40:45.526Z,101315.67
2018-08-28T04:43:14.412Z,101322.22
2018-08-28T04:45:43.335Z,101325.20
2018-08-28T04:48:12.311Z,101327.14
2018-08-28T04:50:41.208Z,101325.94
2018-08-28T04:53:10.150Z,101326.30
2018-08-28T04:55:39.040Z,101332.30
2018-08-28T04:58:07.972Z,101335.41
2018-08-28T05:00:37.210Z,101337.84
2018-08-28T05:03:06.057Z,101338.17
2018-08-28T05:05:34.937Z,101339.28
2018-08-28T05:08:03.862Z,101345.73
2018-08-28T05:10:32.751Z,101343.28
2018-08-28T05:13:01.889Z,101348.14
2018-08-28T05:15:30.786Z,101354.12
2018-08-28T05:17:59.683Z,101358.95
2018-08-28T05:20:28.582Z,101357.05
2018-08-28T05:22:57.462Z,101359.23
2018-08-28T05:25:26.419Z,101362.08
2018-08-28T05:27:55.319Z,101359.57
2018-08-28T05:30:24.745Z,101364.30
2018-08-28T05:32:53.685Z,101367.20
2018-08-28T05:35:22.597Z,101372.70
2018-08-28T05:37:51.600Z,101373.41
2018-08-28T05:40:20.469Z,101378.11
2018-08-28T05:42:49.398Z,101381.19
2018-08-28T05:45:18.588Z,101382.41
2018-08-28T05:47:47.515Z,101387.61
2018-08-28T05:50:23.151Z,101387.98
2018-08-28T05:52:52.025Z,101394.90
2018-08-28T05:55:20.923Z,101393.83
2018-08-28T05:57:49.816Z,101391.64
2018-08-28T06:00:18.825Z,101400.92
2018-08-28T06:02:47.859Z,101399.20
2018-08-28T06:05:16.744Z,101401.05
2018-08-28T06:07:45.668Z,101403.94
2018-08-28T06:10:14.539Z,101400.98
2018-08-28T06:12:43.489Z,101402.13
2018-08-28T06:15:12.409Z,101408.19
2018-08-28T06:17:41.298Z,101406.06
2018-08-28T06:20:10.247Z,101412.64
2018-08-28T06:22:39.135Z,101411.56
2018-08-28T06:25:08.477Z,101410.80
2018-08-28T06:27:37.366Z,101417.43
2018-08-28T06:30:06.636Z,101416.27
2018-08-28T06:32:35.976Z,101411.49
2018-08-28T06:35:05.529Z,101419.86
2018-08-28T06:37:34.432Z,101420.91
2018-08-28T06:40:03.671Z,101421.62
2018-08-28T06:42:32.614Z,101418.70
2018-08-28T06:45:01.534Z,101426.77
2018-08-28T06:47:30.530Z,101425.20
2018-08-28T06:49:59.400Z,101426.91
2018-08-28T06:52:28.300Z,101429.20
2018-08-28T06:54:57.217Z,101426.45
2018-08-28T06:57:26.161Z,101433.65
2018-08-28T06:59:55.189Z,101431.59
2018-08-28T07:02:24.159Z,101431.37
2018-08-28T07:04:53.106Z,101429.16
2018-08-28T07:07:22.013Z,101439.24
2018-08-28T07:09:51.616Z,101436.73
2018-08-28T07:12:20.618Z,101435.25
2018-08-28T07:14:49.530Z,101432.84
2018-08-28T07:17:18.445Z,101428.62
2018-08-28T07:19:47.373Z,101432.46
2018-08-28T07:22:17.352Z,101434.32
2018-08-28T07:24:46.274Z,101444.52
2018-08-28T07:27:15.187Z,101448.47
2018-08-28T07:29:44.181Z,101444.47
2018-08-28T07:32:13.108Z,101450.95
2018-08-28T07:34:41.976Z,101450.13
2018-08-28T07:37:10.935Z,101448.05
2018-08-28T07:39:40.049Z,101451.92
2018-08-28T07:42:08.941Z,101454.62
2018-08-28T07:44:37.852Z,101447.12
2018-08-28T07:47:06.747Z,101448.19
2018-08-28T07:49:35.925Z,101449.05
2018-08-28T07:52:04.786Z,101447.25
2018-08-28T07:54:33.666Z,101454.50
2018-08-28T07:57:02.575Z,101454.03
2018-08-28T07:59:32.026Z,101453.03
2018-08-28T08:02:00.918Z,101458.66
2018-08-28T08:04:29.794Z,101463.91
2018-08-28T08:06:58.783Z,101458.55
2018-08-28T08:09:27.666Z,101462.63
2018-08-28T08:11:56.545Z,101462.58
2018-08-28T08:14:25.429Z,101453.98
2018-08-28T08:16:54.442Z,101464.56
2018-08-28T08:19:23.332Z,101465.34
2018-08-28T08:21:52.227Z,101457.88
2018-08-28T08:24:21.330Z,101475.81
2018-08-28T08:26:50.252Z,101476.59
2018-08-28T08:29:19.171Z,101478.41
2018-08-28T08:31:48.136Z,101483.23
2018-08-28T08:34:17.094Z,101486.59
2018-08-28T08:36:45.972Z,101485.50
2018-08-28T08:39:14.852Z,101488.52
2018-08-28T08:41:43.725Z,101486.88
2018-08-28T08:44:12.700Z,101488.77
2018-08-28T08:46:41.610Z,101484.97
2018-08-28T08:49:10.516Z,101479.83
2018-08-28T08:51:39.911Z,101484.72
2018-08-28T08:54:08.785Z,101488.53
2018-08-28T08:56:37.694Z,101481.45
2018-08-28T08:59:07.295Z,101482.84
2018-08-28T09:01:38.535Z,101478.52
2018-08-28T09:04:09.930Z,101478.52
2018-08-28T09:06:40.780Z,101485.06
2018-08-28T09:09:09.692Z,101485.59
2018-08-28T09:11:38.756Z,101482.62
2018-08-28T09:14:08.690Z,101484.82
2018-08-28T09:16:37.614Z,101484.31
2018-08-28T09:19:06.523Z,101486.52
2018-08-28T09:21:35.813Z,101484.33
2018-08-28T09:24:04.697Z,101487.59
2018-08-28T09:26:33.577Z,101487.87
2018-08-28T09:29:02.486Z,101491.66
2018-08-28T09:31:31.511Z,101490.87
2018-08-28T09:34:00.363Z,101490.34
2018-08-28T09:36:29.252Z,101493.58
2018-08-28T09:38:58.242Z,101490.87
2018-08-28T09:41:27.230Z,101495.48
2018-08-28T09:43:56.167Z,101497.14
2018-08-28T09:46:25.371Z,101497.67
2018-08-28T09:48:54.271Z,101501.48
2018-08-28T09:51:23.161Z,101503.95
2018-08-28T09:53:52.105Z,101502.58
2018-08-28T09:56:21.064Z,101504.74
2018-08-28T09:58:49.886Z,101507.48
2018-08-28T10:01:24.054Z,101507.46
2018-08-28T10:03:53.002Z,101502.87
2018-08-28T10:06:21.894Z,101507.22
2018-08-28T10:08:50.789Z,101504.50
2018-08-28T10:11:19.688Z,101503.70
2018-08-28T10:13:48.573Z,101512.91
2018-08-28T10:16:17.444Z,101512.13
2018-08-28T10:18:46.348Z,101504.50
2018-08-28T10:21:15.218Z,101506.16
2018-08-28T10:23:44.108Z,101505.85
2018-08-28T10:26:13.152Z,101505.31
2018-08-28T10:28:42.058Z,101506.38
2018-08-28T10:31:10.959Z,101503.32
2018-08-28T10:33:39.878Z,101506.12
2018-08-28T10:36:08.816Z,101503.84
2018-08-28T10:38:37.755Z,101503.86
2018-08-28T10:41:06.712Z,101516.17
2018-08-28T10:43:35.617Z,101511.59
2018-08-28T10:46:04.653Z,101517.83
2018-08-28T10:48:33.552Z,101510.50
2018-08-28T10:51:02.451Z,101513.22
2018-08-28T10:53:31.346Z,101518.13
2018-08-28T10:56:00.252Z,101518.66
2018-08-28T10:58:29.195Z,101521.40
2018-08-28T11:00:58.055Z,101524.37
2018-08-28T11:03:26.965Z,101521.37
2018-08-28T11:05:55.870Z,101521.63
2018-08-28T11:08:24.757Z,101528.18
2018-08-28T11:10:53.771Z,101525.42
2018-08-28T11:13:22.686Z,101523.53
2018-08-28T11:15:51.610Z,101529.50
2018-08-28T11:18:20.512Z,101525.59
2018-08-28T11:20:49.420Z,101527.52
2018-08-28T11:23:18.329Z,101521.52
2018-08-28T11:25:47.216Z,101525.55
2018-08-28T11:28:16.474Z,101519.78
2018-08-28T11:30:45.434Z,101529.11
2018-08-28T11:33:14.321Z,101523.62
2018-08-28T11:35:43.295Z,101518.99
2018-08-28T11:38:12.171Z,101516.67
2018-08-28T11:40:41.093Z,101527.55
2018-08-28T11:43:10.280Z,101533.98
2018-08-28T11:45:39.225Z,101528.37
2018-08-28T11:48:08.149Z,101529.20
2018-08-28T11:50:37.198Z,101529.19
2018-08-28T11:53:06.286Z,101532.47
2018-08-28T11:55:35.192Z,101532.91
2018-08-28T11:58:04.230Z,101531.78
2018-08-28T12:00:33.154Z,101535.58
2018-08-28T12:03:02.075Z,101536.30
2018-08-28T12:05:31.019Z,101532.05
2018-08-28T12:08:00.005Z,101536.13
2018-08-28T12:10:28.953Z,101536.72
2018-08-28T12:12:58.217Z,101536.22
2018-08-28T12:15:27.033Z,101538.99
2018-08-28T12:17:55.913Z,101537.13
2018-08-28T12:20:24.888Z,101529.97
2018-08-28T12:22:53.797Z,101534.05
2018-08-28T12:25:22.669Z,101528.30
2018-08-28T12:27:51.554Z,101532.37
2018-08-28T12:30:20.811Z,101531.91
2018-08-28T12:32:49.710Z,101529.20
2018-08-28T12:35:18.599Z,101528.66
2018-08-28T12:37:47.514Z,101528.64
2018-08-28T12:40:16.413Z,101534.36
2018-08-28T12:42:45.317Z,101527.31
2018-08-28T12:45:14.233Z,101530.84
2018-08-28T12:47:43.185Z,101538.10
2018-08-28T12:50:12.121Z,101534.01
2018-08-28T12:52:41.275Z,101531.00
2018-08-28T12:55:10.187Z,101539.45
2018-08-28T12:57:39.094Z,101540.22
2018-08-28T13:00:08.440Z,101536.97
2018-08-28T13:02:37.321Z,101536.92
2018-08-28T13:05:06.197Z,101534.45
2018-08-28T13:07:35.180Z,101535.32
2018-08-28T13:10:04.091Z,101532.52
2018-08-28T13:12:33.336Z,101535.19
2018-08-28T13:15:03.326Z,101528.13
2018-08-28T13:17:32.392Z,101529.09
2018-08-28T13:20:01.383Z,101529.95
2018-08-28T13:22:30.347Z,101527.98
2018-08-28T13:24:59.611Z,101523.96
2018-08-28T13:27:28.596Z,101521.23
2018-08-28T13:29:57.528Z,101524.77
2018-08-28T13:32:26.409Z,101525.49
2018-08-28T13:34:55.308Z,101523.82
2018-08-28T13:37:24.275Z,101519.51
2018-08-28T13:39:53.263Z,101524.05
2018-08-28T13:42:22.161Z,101517.14
2018-08-28T13:44:51.056Z,101526.16
2018-08-28T13:47:19.966Z,101524.51
2018-08-28T13:49:48.846Z,101524.00
2018-08-28T13:52:17.782Z,101517.30
2018-08-28T13:54:46.722Z,101521.11
2018-08-28T13:57:15.631Z,101523.02
2018-08-28T13:59:44.696Z,101524.44
2018-08-28T14:02:13.701Z,101531.05
2018-08-28T14:04:42.631Z,101526.98
2018-08-28T14:07:11.596Z,101532.42
2018-08-28T14:09:40.563Z,101531.28
2018-08-28T14:12:09.533Z,101525.23
2018-08-28T14:14:38.483Z,101536.06
2018-08-28T14:17:07.858Z,101534.17
2018-08-28T14:19:36.782Z,101532.77
2018-08-28T14:22:05.705Z,101533.59
2018-08-28T14:24:34.624Z,101529.31
2018-08-28T14:27:03.752Z,101527.27
2018-08-28T14:29:32.667Z,101525.72
2018-08-28T14:32:01.560Z,101525.62
2018-08-28T14:34:30.468Z,101525.91
2018-08-28T14:36:59.437Z,101529.18
2018-08-28T14:39:28.350Z,101530.66
2018-08-28T14:41:57.271Z,101519.14
2018-08-28T14:44:26.190Z,101524.95
2018-08-28T14:46:55.102Z,101523.75
2018-08-28T14:49:24.040Z,101516.95
2018-08-28T14:51:53.400Z,101516.48
2018-08-28T14:54:22.413Z,101510.71
2018-08-28T14:56:51.372Z,101506.11
2018-08-28T14:59:20.198Z,101512.30
2018-08-28T15:01:49.227Z,101506.40
2018-08-28T15:04:18.840Z,101506.46
2018-08-28T15:06:48.501Z,101501.77
2018-08-28T15:09:17.500Z,101498.07
2018-08-28T15:11:46.394Z,101499.19
2018-08-28T15:14:15.382Z,101495.02
2018-08-28T15:16:44.364Z,101495.75
2018-08-28T15:19:13.205Z,101496.52
2018-08-28T15:21:42.137Z,101497.59
2018-08-28T15:24:13.241Z,101502.14
2018-08-28T15:26:42.181Z,101499.25
2018-08-28T15:29:11.103Z,101496.99
2018-08-28T15:31:40.041Z,101488.66
2018-08-28T15:34:08.984Z,101491.52
2018-08-28T15:36:37.877Z,101499.84
2018-08-28T15:39:07.331Z,101491.69
2018-08-28T15:41:36.244Z,101490.53
2018-08-28T15:44:05.164Z,101495.72
2018-08-28T15:46:34.670Z,101494.10
2018-08-28T15:49:03.552Z,101496.12
2018-08-28T15:51:32.505Z,101487.44
2018-08-28T15:54:01.389Z,101496.66
2018-08-28T15:56:30.313Z,101495.50
2018-08-28T15:58:59.275Z,101492.85
2018-08-28T16:01:28.127Z,101496.17
2018-08-28T16:03:57.047Z,101499.06
2018-08-28T16:06:25.953Z,101494.70
2018-08-28T16:08:54.890Z,101495.36
2018-08-28T16:11:24.079Z,101486.36
2018-08-28T16:13:53.067Z,101490.10
2018-08-28T16:16:21.958Z,101495.97
2018-08-28T16:18:50.985Z,101495.39
2018-08-28T16:21:19.298Z,101493.73
2018-08-28T16:23:49.525Z,101486.89
2018-08-28T16:26:18.349Z,101494.89
2018-08-28T16:28:47.232Z,101492.95
2018-08-28T16:31:16.147Z,101497.02
2018-08-28T16:33:45.060Z,101492.00
2018-08-28T16:36:14.014Z,101493.45
2018-08-28T16:38:42.945Z,101492.98
2018-08-28T16:41:11.918Z,101495.50
2018-08-28T16:43:40.815Z,101496.35
2018-08-28T16:46:09.750Z,101489.84
2018-08-28T16:48:38.675Z,101490.69
2018-08-28T16:51:07.581Z,101488.98
2018-08-28T16:53:36.533Z,101485.83
2018-08-28T16:56:05.506Z,101492.15
2018-08-28T16:58:34.525Z,101488.30
2018-08-28T17:01:03.494Z,101482.70
2018-08-28T17:03:32.424Z,101492.28
2018-08-28T17:06:01.361Z,101490.35
2018-08-28T17:08:30.306Z,101486.11
2018-08-28T17:10:59.197Z,101481.83
2018-08-28T17:13:28.141Z,101483.02
2018-08-28T17:15:57.094Z,101481.78
2018-08-28T17:18:26.117Z,101478.33
2018-08-28T17:20:55.035Z,101477.68
2018-08-28T17:23:23.994Z,101478.69
2018-08-28T17:25:52.953Z,101474.07
2018-08-28T17:28:21.865Z,101470.00
2018-08-28T17:30:50.942Z,101475.80
2018-08-28T17:33:20.129Z,101476.38
2018-08-28T17:35:49.040Z,101482.50
2018-08-28T17:38:18.148Z,101485.93
2018-08-28T17:40:47.053Z,101488.17
2018-08-28T17:43:15.947Z,101492.03
2018-08-28T17:45:44.895Z,101488.78
2018-08-28T17:48:14.047Z,101487.50
2018-08-28T17:50:42.932Z,101494.89
2018-08-28T17:53:11.833Z,101504.70
2018-08-28T17:55:41.057Z,101503.95
2018-08-28T17:58:09.979Z,101509.14
2018-08-28T18:00:39.976Z,101501.99
2018-08-28T18:03:08.888Z,101506.44
2018-08-28T18:05:37.955Z,101513.00
2018-08-28T18:08:06.908Z,101516.86
2018-08-28T18:10:35.945Z,101511.16
2018-08-28T18:13:04.894Z,101513.16
2018-08-28T18:15:34.692Z,101516.44
2018-08-28T18:18:03.588Z,101514.58
2018-08-28T18:20:32.606Z,101514.45
2018-08-28T18:23:01.475Z,101516.56
2018-08-28T18:25:30.421Z,101515.01
2018-08-28T18:27:59.413Z,101519.72
2018-08-28T18:30:28.345Z,101524.13
2018-08-28T18:32:57.321Z,101532.05
2018-08-28T18:35:26.320Z,101524.37
2018-08-28T18:37:55.190Z,101518.59
2018-08-28T18:40:24.089Z,101525.23
2018-08-28T18:42:53.047Z,101531.52
2018-08-28T18:45:21.954Z,101533.72
2018-08-28T18:47:50.912Z,101528.72
2018-08-28T18:50:19.886Z,101525.77
2018-08-28T18:52:48.846Z,101529.34
2018-08-28T18:55:17.853Z,101524.33
2018-08-28T18:57:46.783Z,101533.16
2018-08-28T19:00:15.742Z,101528.56
2018-08-28T19:02:44.721Z,101530.20
2018-08-28T19:05:13.609Z,101532.34
2018-08-28T19:07:43.131Z,101530.47
2018-08-28T19:10:12.029Z,101531.31
2018-08-28T19:12:40.974Z,101531.53
2018-08-28T19:15:09.870Z,101533.73
2018-08-28T19:17:38.869Z,101531.03
2018-08-28T19:20:07.805Z,101530.46
2018-08-28T19:22:36.733Z,101537.53
2018-08-28T19:25:05.662Z,101536.14
2018-08-28T19:27:34.947Z,101524.91
2018-08-28T19:30:03.880Z,101535.37
2018-08-28T19:32:32.777Z,101533.73
2018-08-28T19:35:01.718Z,101540.02
2018-08-28T19:37:30.709Z,101532.92
2018-08-28T19:39:59.798Z,101526.97
2018-08-28T19:42:28.778Z,101526.44
2018-08-28T19:44:57.709Z,101530.20
2018-08-28T19:47:26.721Z,101527.49
2018-08-28T19:49:55.728Z,101529.95
2018-08-28T19:52:24.644Z,101528.04
2018-08-28T19:54:53.558Z,101530.46
2018-08-28T19:57:22.467Z,101529.97
2018-08-28T19:59:52.056Z,101524.59
2018-08-28T20:02:20.981Z,101522.36
2018-08-28T20:04:49.912Z,101525.31
2018-08-28T20:07:18.832Z,101526.75
2018-08-28T20:09:47.728Z,101521.81
2018-08-28T20:12:16.602Z,101524.89
2018-08-28T20:14:45.569Z,101527.61
2018-08-28T20:17:14.591Z,101523.52
2018-08-28T20:19:43.470Z,101522.95
2018-08-28T20:22:12.867Z,101514.23
2018-08-28T20:24:41.845Z,101513.16
2018-08-28T20:27:10.897Z,101515.88
2018-08-28T20:29:40.223Z,101512.55
2018-08-28T20:32:09.178Z,101514.69
2018-08-28T20:34:38.131Z,101515.60
2018-08-28T20:37:07.017Z,101512.07
2018-08-28T20:39:36.207Z,101508.23
2018-08-28T20:42:05.074Z,101512.34
2018-08-28T20:44:34.013Z,101508.55
2018-08-28T20:47:03.077Z,101506.31
2018-08-28T20:49:31.967Z,101505.50
2018-08-28T20:52:00.898Z,101506.38
2018-08-28T20:54:29.771Z,101503.09
2018-08-28T20:56:58.674Z,101500.35
2018-08-28T20:59:27.592Z,101496.25
2018-08-28T21:01:56.497Z,101500.94
2018-08-28T21:04:25.424Z,101502.59
2018-08-28T21:06:54.794Z,101495.51
2018-08-28T21:09:23.601Z,101495.52
2018-08-28T21:11:53.328Z,101497.42
2018-08-28T21:14:22.242Z,101488.97
2018-08-28T21:16:51.213Z,101491.73
2018-08-28T21:19:20.155Z,101487.64
2018-08-28T21:21:49.064Z,101486.80
2018-08-28T21:24:18.007Z,101480.55
2018-08-28T21:26:46.941Z,101476.75
2018-08-28T21:29:15.878Z,101473.50
2018-08-28T21:31:44.771Z,101474.03
2018-08-28T21:34:13.686Z,101469.42
2018-08-28T21:36:42.584Z,101468.85
2018-08-28T21:39:11.462Z,101470.75
2018-08-28T21:41:40.475Z,101469.95
2018-08-28T21:44:09.402Z,101462.89
2018-08-28T21:46:38.302Z,101465.61
2018-08-28T21:49:07.465Z,101466.67
2018-08-28T21:51:36.445Z,101459.88
2018-08-28T21:54:05.458Z,101463.95
2018-08-28T21:56:34.381Z,101462.89
2018-08-28T21:59:07.577Z,101471.00
2018-08-28T22:01:36.468Z,101473.44
2018-08-28T22:04:05.553Z,101476.17
2018-08-28T22:06:39.750Z,101474.03
2018-08-28T22:09:08.647Z,101474.55
2018-08-28T22:11:37.559Z,101471.30
2018-08-28T22:14:06.512Z,101469.38
2018-08-28T22:16:35.456Z,101469.93
2018-08-28T22:19:05.062Z,101464.20
2018-08-28T22:21:33.968Z,101464.14
2018-08-28T22:24:05.510Z,101462.52
2018-08-28T22:26:34.559Z,101457.90
2018-08-28T22:29:20.815Z,101459.31
2018-08-28T22:31:49.805Z,101461.41
2018-08-28T22:34:25.843Z,101461.14
2018-08-28T22:36:56.618Z,101467.89
2018-08-28T22:39:25.768Z,101461.39
2018-08-28T22:41:54.763Z,101464.68
2018-08-28T22:44:23.691Z,101460.61
2018-08-28T22:46:52.581Z,101461.42
2018-08-28T22:49:21.484Z,101460.36
2018-08-28T22:51:50.402Z,101458.34
2018-08-28T22:54:19.562Z,101458.86
2018-08-28T22:56:48.424Z,101456.77
2018-08-28T22:59:17.319Z,101451.59
2018-08-28T23:01:46.219Z,101452.94
2018-08-28T23:04:15.137Z,101446.98
2018-08-28T23:06:44.049Z,101443.15
2018-08-28T23:09:12.950Z,101444.79
2018-08-28T23:11:41.859Z,101446.98
2018-08-28T23:14:10.781Z,101456.15
2018-08-28T23:16:39.653Z,101443.91
2018-08-28T23:19:08.536Z,101449.93
2018-08-28T23:21:37.454Z,101444.25
2018-08-28T23:24:06.379Z,101440.14
2018-08-28T23:26:35.254Z,101437.09
2018-08-28T23:29:04.291Z,101438.07
2018-08-28T23:31:33.186Z,101442.63
2018-08-28T23:34:02.143Z,101436.20
2018-08-28T23:36:30.974Z,101430.87
2018-08-28T23:38:59.867Z,101432.06
2018-08-28T23:41:28.783Z,101439.98
2018-08-28T23:43:57.714Z,101433.45
2018-08-28T23:46:26.595Z,101429.13
2018-08-28T23:48:55.518Z,101433.20
2018-08-28T23:51:24.443Z,101436.69
2018-08-28T23:53:53.357Z,101430.05
2018-08-28T23:56:22.266Z,101430.97
2018-08-28T23:58:51.150Z,101422.84
